sensor_id;sensor_type;location;lat;lon;timestamp;P1;durP1;ratioP1;P2;durP2;ratioP2
54125;SDS011;40360;52.992;6.796;2022-08-19T00:00:00;11.57;;;10.38;;
54125;SDS011;40360;52.992;6.796;2022-08-19T00:02:28;10.13;;;9.07;;
54125;SDS011;40360;52.992;6.796;2022-08-19T00:04:53;8.25;;;7.45;;
54125;SDS011;40360;52.992;6.796;2022-08-19T00:07:19;16.60;;;8.82;;
54125;SDS011;40360;52.992;6.796;2022-08-19T00:09:45;13.45;;;11.05;;
54125;SDS011;40360;52.992;6.796;2022-08-19T00:12:10;9.48;;;8.48;;
54125;SDS011;40360;52.992;6.796;2022-08-19T00:14:37;10.20;;;8.32;;
54125;SDS011;40360;52.992;6.796;2022-08-19T00:17:04;12.20;;;9.68;;
54125;SDS011;40360;52.992;6.796;2022-08-19T00:19:31;9.80;;;7.68;;
54125;SDS011;40360;52.992;6.796;2022-08-19T00:21:57;9.95;;;7.63;;
54125;SDS011;40360;52.992;6.796;2022-08-19T00:24:23;12.02;;;9.40;;
54125;SDS011;40360;52.992;6.796;2022-08-19T00:26:49;13.20;;;10.32;;
54125;SDS011;40360;52.992;6.796;2022-08-19T00:29:16;10.18;;;9.05;;
54125;SDS011;40360;52.992;6.796;2022-08-19T00:31:44;9.98;;;8.65;;
54125;SDS011;40360;52.992;6.796;2022-08-19T00:34:10;8.57;;;7.18;;
54125;SDS011;40360;52.992;6.796;2022-08-19T00:36:38;9.00;;;6.95;;
54125;SDS011;40360;52.992;6.796;2022-08-19T00:39:04;8.48;;;7.57;;
54125;SDS011;40360;52.992;6.796;2022-08-19T00:41:30;7.57;;;6.88;;
54125;SDS011;40360;52.992;6.796;2022-08-19T00:43:57;8.27;;;6.72;;
54125;SDS011;40360;52.992;6.796;2022-08-19T00:46:31;6.32;;;5.72;;
54125;SDS011;40360;52.992;6.796;2022-08-19T00:48:58;7.28;;;6.57;;
54125;SDS011;40360;52.992;6.796;2022-08-19T00:51:26;9.73;;;8.38;;
54125;SDS011;40360;52.992;6.796;2022-08-19T00:53:55;6.97;;;6.28;;
54125;SDS011;40360;52.992;6.796;2022-08-19T00:56:23;8.77;;;7.13;;
54125;SDS011;40360;52.992;6.796;2022-08-19T00:58:52;7.22;;;6.53;;
54125;SDS011;40360;52.992;6.796;2022-08-19T01:01:19;9.63;;;8.73;;
54125;SDS011;40360;52.992;6.796;2022-08-19T01:03:45;10.88;;;9.10;;
54125;SDS011;40360;52.992;6.796;2022-08-19T01:06:10;13.52;;;11.20;;
54125;SDS011;40360;52.992;6.796;2022-08-19T01:08:36;13.38;;;12.07;;
54125;SDS011;40360;52.992;6.796;2022-08-19T01:11:02;10.70;;;9.70;;
54125;SDS011;40360;52.992;6.796;2022-08-19T01:13:30;10.38;;;9.15;;
54125;SDS011;40360;52.992;6.796;2022-08-19T01:16:02;9.77;;;8.85;;
54125;SDS011;40360;52.992;6.796;2022-08-19T01:18:31;12.55;;;10.50;;
54125;SDS011;40360;52.992;6.796;2022-08-19T01:21:06;15.98;;;14.43;;
54125;SDS011;40360;52.992;6.796;2022-08-19T01:23:35;13.00;;;11.27;;
54125;SDS011;40360;52.992;6.796;2022-08-19T01:26:17;10.48;;;8.73;;
54125;SDS011;40360;52.992;6.796;2022-08-19T01:28:47;11.02;;;9.10;;
54125;SDS011;40360;52.992;6.796;2022-08-19T01:31:22;15.13;;;10.30;;
54125;SDS011;40360;52.992;6.796;2022-08-19T01:33:51;17.33;;;11.18;;
54125;SDS011;40360;52.992;6.796;2022-08-19T01:36:22;27.48;;;13.07;;
54125;SDS011;40360;52.992;6.796;2022-08-19T01:38:51;34.80;;;10.52;;
54125;SDS011;40360;52.992;6.796;2022-08-19T01:41:17;236.70;;;25.63;;
54125;SDS011;40360;52.992;6.796;2022-08-19T01:43:43;26.38;;;13.73;;
54125;SDS011;40360;52.992;6.796;2022-08-19T01:46:09;14.48;;;11.10;;
54125;SDS011;40360;52.992;6.796;2022-08-19T01:48:37;27.20;;;17.13;;
54125;SDS011;40360;52.992;6.796;2022-08-19T01:51:06;29.30;;;17.65;;
54125;SDS011;40360;52.992;6.796;2022-08-19T01:53:32;17.80;;;14.35;;
54125;SDS011;40360;52.992;6.796;2022-08-19T01:55:58;24.25;;;14.50;;
54125;SDS011;40360;52.992;6.796;2022-08-19T01:58:24;17.65;;;12.75;;
54125;SDS011;40360;52.992;6.796;2022-08-19T02:00:55;14.68;;;12.25;;
54125;SDS011;40360;52.992;6.796;2022-08-19T02:03:21;16.27;;;12.82;;
54125;SDS011;40360;52.992;6.796;2022-08-19T02:05:47;14.77;;;11.27;;
54125;SDS011;40360;52.992;6.796;2022-08-19T02:08:18;14.40;;;11.85;;
54125;SDS011;40360;52.992;6.796;2022-08-19T02:10:43;14.30;;;11.75;;
54125;SDS011;40360;52.992;6.796;2022-08-19T02:13:10;13.57;;;10.70;;
54125;SDS011;40360;52.992;6.796;2022-08-19T02:15:38;13.35;;;10.40;;
54125;SDS011;40360;52.992;6.796;2022-08-19T02:18:04;11.48;;;9.65;;
54125;SDS011;40360;52.992;6.796;2022-08-19T02:20:31;13.43;;;9.98;;
54125;SDS011;40360;52.992;6.796;2022-08-19T02:22:56;11.25;;;9.10;;
54125;SDS011;40360;52.992;6.796;2022-08-19T02:25:22;11.00;;;9.50;;
54125;SDS011;40360;52.992;6.796;2022-08-19T02:27:48;10.60;;;9.13;;
54125;SDS011;40360;52.992;6.796;2022-08-19T02:30:14;11.55;;;9.50;;
54125;SDS011;40360;52.992;6.796;2022-08-19T02:32:41;15.13;;;9.57;;
54125;SDS011;40360;52.992;6.796;2022-08-19T02:35:07;11.80;;;10.02;;
54125;SDS011;40360;52.992;6.796;2022-08-19T02:37:33;12.63;;;9.18;;
54125;SDS011;40360;52.992;6.796;2022-08-19T02:40:17;170.75;;;15.02;;
54125;SDS011;40360;52.992;6.796;2022-08-19T02:42:43;112.05;;;13.88;;
54125;SDS011;40360;52.992;6.796;2022-08-19T02:45:10;123.50;;;14.70;;
54125;SDS011;40360;52.992;6.796;2022-08-19T02:47:37;63.13;;;15.60;;
54125;SDS011;40360;52.992;6.796;2022-08-19T02:50:03;36.58;;;12.25;;
54125;SDS011;40360;52.992;6.796;2022-08-19T02:52:31;72.05;;;11.70;;
54125;SDS011;40360;52.992;6.796;2022-08-19T02:54:57;132.30;;;13.57;;
54125;SDS011;40360;52.992;6.796;2022-08-19T02:57:23;85.57;;;10.98;;
54125;SDS011;40360;52.992;6.796;2022-08-19T02:59:49;136.50;;;15.77;;
54125;SDS011;40360;52.992;6.796;2022-08-19T03:02:15;120.38;;;14.70;;
54125;SDS011;40360;52.992;6.796;2022-08-19T03:04:41;305.90;;;22.63;;
54125;SDS011;40360;52.992;6.796;2022-08-19T03:07:07;192.85;;;19.00;;
54125;SDS011;40360;52.992;6.796;2022-08-19T03:09:35;112.32;;;19.10;;
54125;SDS011;40360;52.992;6.796;2022-08-19T03:12:02;99.97;;;18.88;;
54125;SDS011;40360;52.992;6.796;2022-08-19T03:14:31;64.85;;;14.63;;
54125;SDS011;40360;52.992;6.796;2022-08-19T03:16:57;58.95;;;16.23;;
54125;SDS011;40360;52.992;6.796;2022-08-19T03:19:23;27.65;;;14.23;;
54125;SDS011;40360;52.992;6.796;2022-08-19T03:21:49;131.50;;;14.95;;
54125;SDS011;40360;52.992;6.796;2022-08-19T03:24:16;43.92;;;12.15;;
54125;SDS011;40360;52.992;6.796;2022-08-19T03:26:44;22.02;;;12.18;;
54125;SDS011;40360;52.992;6.796;2022-08-19T03:29:12;239.55;;;20.77;;
54125;SDS011;40360;52.992;6.796;2022-08-19T03:31:39;170.07;;;17.98;;
54125;SDS011;40360;52.992;6.796;2022-08-19T03:34:06;213.27;;;23.25;;
54125;SDS011;40360;52.992;6.796;2022-08-19T03:36:31;187.27;;;23.38;;
54125;SDS011;40360;52.992;6.796;2022-08-19T03:38:59;180.07;;;22.33;;
54125;SDS011;40360;52.992;6.796;2022-08-19T03:41:26;249.48;;;28.85;;
54125;SDS011;40360;52.992;6.796;2022-08-19T03:43:54;333.08;;;27.13;;
54125;SDS011;40360;52.992;6.796;2022-08-19T03:46:22;289.30;;;26.33;;
54125;SDS011;40360;52.992;6.796;2022-08-19T03:48:51;356.40;;;25.00;;
54125;SDS011;40360;52.992;6.796;2022-08-19T03:51:23;231.50;;;26.23;;
54125;SDS011;40360;52.992;6.796;2022-08-19T03:53:54;163.13;;;23.90;;
54125;SDS011;40360;52.992;6.796;2022-08-19T03:56:20;105.20;;;24.83;;
54125;SDS011;40360;52.992;6.796;2022-08-19T03:58:46;68.53;;;19.08;;
54125;SDS011;40360;52.992;6.796;2022-08-19T04:01:17;24.73;;;16.55;;
54125;SDS011;40360;52.992;6.796;2022-08-19T04:03:45;18.55;;;13.75;;
54125;SDS011;40360;52.992;6.796;2022-08-19T04:06:19;23.30;;;16.48;;
54125;SDS011;40360;52.992;6.796;2022-08-19T04:08:46;17.75;;;13.80;;
54125;SDS011;40360;52.992;6.796;2022-08-19T04:11:14;26.00;;;14.52;;
54125;SDS011;40360;52.992;6.796;2022-08-19T04:13:42;17.75;;;14.05;;
54125;SDS011;40360;52.992;6.796;2022-08-19T04:16:10;22.83;;;14.70;;
54125;SDS011;40360;52.992;6.796;2022-08-19T04:18:37;15.82;;;11.82;;
54125;SDS011;40360;52.992;6.796;2022-08-19T04:21:03;15.10;;;12.13;;
54125;SDS011;40360;52.992;6.796;2022-08-19T04:23:30;19.60;;;14.23;;
54125;SDS011;40360;52.992;6.796;2022-08-19T04:25:56;17.50;;;13.30;;
54125;SDS011;40360;52.992;6.796;2022-08-19T04:28:23;14.13;;;11.82;;
54125;SDS011;40360;52.992;6.796;2022-08-19T04:30:50;15.48;;;11.35;;
54125;SDS011;40360;52.992;6.796;2022-08-19T04:33:19;13.13;;;10.13;;
54125;SDS011;40360;52.992;6.796;2022-08-19T04:35:47;12.98;;;10.90;;
54125;SDS011;40360;52.992;6.796;2022-08-19T04:38:15;11.18;;;9.98;;
54125;SDS011;40360;52.992;6.796;2022-08-19T04:40:44;35.55;;;12.50;;
54125;SDS011;40360;52.992;6.796;2022-08-19T04:43:34;24.73;;;13.95;;
54125;SDS011;40360;52.992;6.796;2022-08-19T04:46:10;54.75;;;14.65;;
54125;SDS011;40360;52.992;6.796;2022-08-19T04:48:37;47.38;;;15.52;;
54125;SDS011;40360;52.992;6.796;2022-08-19T04:51:08;41.53;;;15.57;;
54125;SDS011;40360;52.992;6.796;2022-08-19T04:53:37;28.50;;;14.05;;
54125;SDS011;40360;52.992;6.796;2022-08-19T04:56:05;29.20;;;17.13;;
54125;SDS011;40360;52.992;6.796;2022-08-19T04:58:41;29.05;;;17.77;;
54125;SDS011;40360;52.992;6.796;2022-08-19T05:01:09;25.33;;;16.52;;
54125;SDS011;40360;52.992;6.796;2022-08-19T05:20:45;33.50;;;19.55;;
54125;SDS011;40360;52.992;6.796;2022-08-19T05:23:29;38.03;;;19.77;;
54125;SDS011;40360;52.992;6.796;2022-08-19T05:25:55;35.55;;;22.02;;
54125;SDS011;40360;52.992;6.796;2022-08-19T05:28:20;33.03;;;20.10;;
54125;SDS011;40360;52.992;6.796;2022-08-19T05:30:46;35.08;;;21.05;;
54125;SDS011;40360;52.992;6.796;2022-08-19T05:33:13;39.97;;;21.70;;
54125;SDS011;40360;52.992;6.796;2022-08-19T05:35:39;39.00;;;22.65;;
54125;SDS011;40360;52.992;6.796;2022-08-19T05:38:06;35.22;;;21.27;;
54125;SDS011;40360;52.992;6.796;2022-08-19T05:40:34;32.67;;;21.00;;
54125;SDS011;40360;52.992;6.796;2022-08-19T05:43:01;38.30;;;22.67;;
54125;SDS011;40360;52.992;6.796;2022-08-19T05:45:28;35.50;;;21.42;;
54125;SDS011;40360;52.992;6.796;2022-08-19T05:47:54;39.28;;;22.33;;
54125;SDS011;40360;52.992;6.796;2022-08-19T05:50:19;34.58;;;21.77;;
54125;SDS011;40360;52.992;6.796;2022-08-19T05:52:45;37.25;;;21.85;;
54125;SDS011;40360;52.992;6.796;2022-08-19T05:55:11;38.85;;;24.50;;
54125;SDS011;40360;52.992;6.796;2022-08-19T05:57:37;36.15;;;23.83;;
54125;SDS011;40360;52.992;6.796;2022-08-19T06:00:05;38.35;;;23.75;;
54125;SDS011;40360;52.992;6.796;2022-08-19T06:02:35;33.92;;;23.27;;
54125;SDS011;40360;52.992;6.796;2022-08-19T06:05:03;34.28;;;22.08;;
54125;SDS011;40360;52.992;6.796;2022-08-19T06:07:32;31.63;;;22.40;;
54125;SDS011;40360;52.992;6.796;2022-08-19T06:09:57;30.85;;;22.40;;
54125;SDS011;40360;52.992;6.796;2022-08-19T06:12:23;26.65;;;20.48;;
54125;SDS011;40360;52.992;6.796;2022-08-19T06:14:58;30.35;;;22.38;;
54125;SDS011;40360;52.992;6.796;2022-08-19T06:17:24;31.58;;;21.63;;
54125;SDS011;40360;52.992;6.796;2022-08-19T06:19:51;30.80;;;21.13;;
54125;SDS011;40360;52.992;6.796;2022-08-19T06:22:16;23.52;;;18.75;;
54125;SDS011;40360;52.992;6.796;2022-08-19T06:24:42;20.65;;;17.60;;
54125;SDS011;40360;52.992;6.796;2022-08-19T06:27:08;20.60;;;17.05;;
54125;SDS011;40360;52.992;6.796;2022-08-19T06:29:34;23.48;;;17.73;;
54125;SDS011;40360;52.992;6.796;2022-08-19T06:32:00;23.30;;;16.52;;
54125;SDS011;40360;52.992;6.796;2022-08-19T06:34:28;21.02;;;16.77;;
54125;SDS011;40360;52.992;6.796;2022-08-19T06:36:56;22.08;;;16.35;;
54125;SDS011;40360;52.992;6.796;2022-08-19T06:39:26;24.92;;;16.00;;
54125;SDS011;40360;52.992;6.796;2022-08-19T06:41:55;19.42;;;16.15;;
54125;SDS011;40360;52.992;6.796;2022-08-19T06:44:23;17.33;;;15.52;;
54125;SDS011;40360;52.992;6.796;2022-08-19T06:46:51;19.35;;;16.08;;
54125;SDS011;40360;52.992;6.796;2022-08-19T06:49:17;18.30;;;15.38;;
54125;SDS011;40360;52.992;6.796;2022-08-19T06:51:44;18.60;;;15.40;;
54125;SDS011;40360;52.992;6.796;2022-08-19T06:54:12;14.93;;;13.02;;
54125;SDS011;40360;52.992;6.796;2022-08-19T06:56:38;15.07;;;13.48;;
54125;SDS011;40360;52.992;6.796;2022-08-19T06:59:09;14.82;;;13.32;;
54125;SDS011;40360;52.992;6.796;2022-08-19T07:01:40;17.50;;;13.27;;
54125;SDS011;40360;52.992;6.796;2022-08-19T07:04:12;16.48;;;13.55;;
54125;SDS011;40360;52.992;6.796;2022-08-19T07:06:40;13.57;;;11.63;;
54125;SDS011;40360;52.992;6.796;2022-08-19T07:09:07;15.35;;;11.55;;
54125;SDS011;40360;52.992;6.796;2022-08-19T07:11:34;15.13;;;11.45;;
54125;SDS011;40360;52.992;6.796;2022-08-19T07:14:00;16.25;;;12.52;;
54125;SDS011;40360;52.992;6.796;2022-08-19T07:16:26;13.57;;;11.45;;
54125;SDS011;40360;52.992;6.796;2022-08-19T07:18:52;11.98;;;10.77;;
54125;SDS011;40360;52.992;6.796;2022-08-19T07:21:20;13.63;;;11.00;;
54125;SDS011;40360;52.992;6.796;2022-08-19T07:23:47;12.32;;;11.13;;
54125;SDS011;40360;52.992;6.796;2022-08-19T07:26:15;12.90;;;10.75;;
54125;SDS011;40360;52.992;6.796;2022-08-19T07:28:44;13.00;;;10.35;;
54125;SDS011;40360;52.992;6.796;2022-08-19T07:31:11;14.02;;;10.18;;
54125;SDS011;40360;52.992;6.796;2022-08-19T07:33:46;14.53;;;11.07;;
54125;SDS011;40360;52.992;6.796;2022-08-19T07:36:13;10.57;;;9.57;;
54125;SDS011;40360;52.992;6.796;2022-08-19T07:38:42;14.70;;;10.50;;
54125;SDS011;40360;52.992;6.796;2022-08-19T07:41:17;13.80;;;10.80;;
54125;SDS011;40360;52.992;6.796;2022-08-19T07:43:48;11.88;;;9.60;;
54125;SDS011;40360;52.992;6.796;2022-08-19T07:46:14;13.90;;;10.35;;
54125;SDS011;40360;52.992;6.796;2022-08-19T07:48:42;11.85;;;9.40;;
54125;SDS011;40360;52.992;6.796;2022-08-19T07:51:13;12.00;;;9.65;;
54125;SDS011;40360;52.992;6.796;2022-08-19T07:53:41;11.57;;;10.35;;
54125;SDS011;40360;52.992;6.796;2022-08-19T07:56:09;12.90;;;9.77;;
54125;SDS011;40360;52.992;6.796;2022-08-19T07:58:38;12.15;;;10.20;;
54125;SDS011;40360;52.992;6.796;2022-08-19T08:01:06;11.95;;;10.70;;
54125;SDS011;40360;52.992;6.796;2022-08-19T08:03:33;14.75;;;10.77;;
54125;SDS011;40360;52.992;6.796;2022-08-19T08:06:17;12.95;;;11.52;;
54125;SDS011;40360;52.992;6.796;2022-08-19T08:09:02;11.63;;;10.20;;
54125;SDS011;40360;52.992;6.796;2022-08-19T08:12:03;15.93;;;11.43;;
54125;SDS011;40360;52.992;6.796;2022-08-19T08:14:52;12.88;;;10.93;;
54125;SDS011;40360;52.992;6.796;2022-08-19T08:17:22;11.43;;;10.32;;
54125;SDS011;40360;52.992;6.796;2022-08-19T08:19:49;12.57;;;11.27;;
54125;SDS011;40360;52.992;6.796;2022-08-19T08:22:16;13.23;;;11.45;;
54125;SDS011;40360;52.992;6.796;2022-08-19T08:25:08;11.90;;;10.65;;
54125;SDS011;40360;52.992;6.796;2022-08-19T08:27:37;14.02;;;10.75;;
54125;SDS011;40360;52.992;6.796;2022-08-19T08:30:15;11.70;;;10.48;;
54125;SDS011;40360;52.992;6.796;2022-08-19T08:32:45;12.05;;;10.95;;
54125;SDS011;40360;52.992;6.796;2022-08-19T08:35:12;12.18;;;10.88;;
54125;SDS011;40360;52.992;6.796;2022-08-19T08:37:39;12.57;;;11.27;;
54125;SDS011;40360;52.992;6.796;2022-08-19T08:40:06;12.32;;;9.45;;
54125;SDS011;40360;52.992;6.796;2022-08-19T08:42:44;10.13;;;9.13;;
54125;SDS011;40360;52.992;6.796;2022-08-19T08:45:17;9.88;;;8.88;;
54125;SDS011;40360;52.992;6.796;2022-08-19T08:47:44;8.05;;;6.97;;
54125;SDS011;40360;52.992;6.796;2022-08-19T08:50:17;6.55;;;5.75;;
54125;SDS011;40360;52.992;6.796;2022-08-19T08:52:52;10.10;;;9.10;;
54125;SDS011;40360;52.992;6.796;2022-08-19T08:55:22;7.93;;;7.13;;
54125;SDS011;40360;52.992;6.796;2022-08-19T09:00:32;5.05;;;3.97;;
54125;SDS011;40360;52.992;6.796;2022-08-19T09:03:02;6.07;;;4.10;;
54125;SDS011;40360;52.992;6.796;2022-08-19T09:05:46;6.60;;;5.07;;
54125;SDS011;40360;52.992;6.796;2022-08-19T09:08:37;5.45;;;4.30;;
54125;SDS011;40360;52.992;6.796;2022-08-19T09:11:10;5.85;;;3.88;;
54125;SDS011;40360;52.992;6.796;2022-08-19T09:16:16;7.60;;;6.03;;
54125;SDS011;40360;52.992;6.796;2022-08-19T09:18:46;5.65;;;4.55;;
54125;SDS011;40360;52.992;6.796;2022-08-19T09:21:16;5.88;;;5.28;;
54125;SDS011;40360;52.992;6.796;2022-08-19T09:23:42;6.68;;;5.50;;
54125;SDS011;40360;52.992;6.796;2022-08-19T09:26:09;5.57;;;5.00;;
54125;SDS011;40360;52.992;6.796;2022-08-19T09:28:38;8.80;;;6.47;;
54125;SDS011;40360;52.992;6.796;2022-08-19T09:31:08;8.52;;;7.07;;
54125;SDS011;40360;52.992;6.796;2022-08-19T09:33:38;7.40;;;5.35;;
54125;SDS011;40360;52.992;6.796;2022-08-19T09:36:05;6.97;;;6.28;;
54125;SDS011;40360;52.992;6.796;2022-08-19T09:38:32;9.32;;;4.43;;
54125;SDS011;40360;52.992;6.796;2022-08-19T09:41:03;8.13;;;6.60;;
54125;SDS011;40360;52.992;6.796;2022-08-19T09:43:30;10.48;;;9.35;;
54125;SDS011;40360;52.992;6.796;2022-08-19T09:45:56;13.68;;;9.65;;
54125;SDS011;40360;52.992;6.796;2022-08-19T09:48:22;7.85;;;7.05;;
54125;SDS011;40360;52.992;6.796;2022-08-19T09:50:47;10.25;;;6.63;;
54125;SDS011;40360;52.992;6.796;2022-08-19T09:53:15;7.53;;;6.82;;
54125;SDS011;40360;52.992;6.796;2022-08-19T09:55:43;8.25;;;7.30;;
54125;SDS011;40360;52.992;6.796;2022-08-19T09:58:09;7.30;;;6.57;;
54125;SDS011;40360;52.992;6.796;2022-08-19T10:00:36;8.27;;;7.20;;
54125;SDS011;40360;52.992;6.796;2022-08-19T10:03:03;6.85;;;6.22;;
54125;SDS011;40360;52.992;6.796;2022-08-19T10:05:28;7.00;;;6.28;;
54125;SDS011;40360;52.992;6.796;2022-08-19T10:08:13;6.28;;;5.68;;
54125;SDS011;40360;52.992;6.796;2022-08-19T10:10:39;7.22;;;6.25;;
54125;SDS011;40360;52.992;6.796;2022-08-19T10:13:08;7.65;;;6.65;;
54125;SDS011;40360;52.992;6.796;2022-08-19T10:15:34;10.00;;;7.90;;
54125;SDS011;40360;52.992;6.796;2022-08-19T10:18:00;9.82;;;6.43;;
54125;SDS011;40360;52.992;6.796;2022-08-19T10:20:26;8.60;;;7.18;;
54125;SDS011;40360;52.992;6.796;2022-08-19T10:22:52;8.60;;;7.60;;
54125;SDS011;40360;52.992;6.796;2022-08-19T10:25:17;7.85;;;7.15;;
54125;SDS011;40360;52.992;6.796;2022-08-19T10:27:43;7.38;;;6.60;;
54125;SDS011;40360;52.992;6.796;2022-08-19T10:30:09;7.00;;;6.40;;
54125;SDS011;40360;52.992;6.796;2022-08-19T10:32:35;6.55;;;5.90;;
54125;SDS011;40360;52.992;6.796;2022-08-19T10:35:01;6.78;;;6.18;;
54125;SDS011;40360;52.992;6.796;2022-08-19T10:37:30;11.57;;;6.85;;
54125;SDS011;40360;52.992;6.796;2022-08-19T10:39:57;7.75;;;6.88;;
54125;SDS011;40360;52.992;6.796;2022-08-19T10:42:23;8.52;;;7.68;;
54125;SDS011;40360;52.992;6.796;2022-08-19T10:44:49;8.30;;;7.57;;
54125;SDS011;40360;52.992;6.796;2022-08-19T10:47:15;9.00;;;7.78;;
54125;SDS011;40360;52.992;6.796;2022-08-19T10:49:40;7.82;;;7.05;;
54125;SDS011;40360;52.992;6.796;2022-08-19T10:52:25;10.38;;;9.35;;
54125;SDS011;40360;52.992;6.796;2022-08-19T10:55:03;10.52;;;7.95;;
54125;SDS011;40360;52.992;6.796;2022-08-19T10:57:49;10.20;;;9.20;;
54125;SDS011;40360;52.992;6.796;2022-08-19T11:00:14;8.77;;;7.63;;
54125;SDS011;40360;52.992;6.796;2022-08-19T11:02:40;11.05;;;9.88;;
54125;SDS011;40360;52.992;6.796;2022-08-19T11:05:07;10.20;;;7.68;;
54125;SDS011;40360;52.992;6.796;2022-08-19T11:07:36;8.07;;;6.47;;
54125;SDS011;40360;52.992;6.796;2022-08-19T11:10:03;7.22;;;6.47;;
54125;SDS011;40360;52.992;6.796;2022-08-19T11:12:29;9.15;;;5.53;;
54125;SDS011;40360;52.992;6.796;2022-08-19T11:14:55;7.18;;;6.03;;
54125;SDS011;40360;52.992;6.796;2022-08-19T11:17:20;6.65;;;6.03;;
54125;SDS011;40360;52.992;6.796;2022-08-19T11:19:48;8.25;;;7.45;;
54125;SDS011;40360;52.992;6.796;2022-08-19T11:22:14;7.88;;;6.70;;
54125;SDS011;40360;52.992;6.796;2022-08-19T11:24:40;7.80;;;6.50;;
54125;SDS011;40360;52.992;6.796;2022-08-19T11:27:07;8.25;;;7.45;;
54125;SDS011;40360;52.992;6.796;2022-08-19T11:29:35;10.45;;;8.57;;
54125;SDS011;40360;52.992;6.796;2022-08-19T11:32:03;7.95;;;7.15;;
54125;SDS011;40360;52.992;6.796;2022-08-19T11:34:30;10.40;;;8.10;;
54125;SDS011;40360;52.992;6.796;2022-08-19T11:36:57;10.23;;;6.75;;
54125;SDS011;40360;52.992;6.796;2022-08-19T11:39:24;6.63;;;6.03;;
54125;SDS011;40360;52.992;6.796;2022-08-19T11:41:50;8.45;;;7.72;;
54125;SDS011;40360;52.992;6.796;2022-08-19T11:44:16;7.22;;;6.53;;
54125;SDS011;40360;52.992;6.796;2022-08-19T11:46:43;6.43;;;5.82;;
54125;SDS011;40360;52.992;6.796;2022-08-19T11:49:10;7.15;;;6.10;;
54125;SDS011;40360;52.992;6.796;2022-08-19T11:51:36;7.28;;;6.55;;
54125;SDS011;40360;52.992;6.796;2022-08-19T11:54:03;6.75;;;6.15;;
54125;SDS011;40360;52.992;6.796;2022-08-19T11:56:30;7.53;;;5.60;;
54125;SDS011;40360;52.992;6.796;2022-08-19T11:58:56;6.72;;;6.10;;
54125;SDS011;40360;52.992;6.796;2022-08-19T12:01:22;7.20;;;6.53;;
54125;SDS011;40360;52.992;6.796;2022-08-19T12:03:50;7.32;;;6.55;;
54125;SDS011;40360;52.992;6.796;2022-08-19T12:06:19;8.07;;;6.00;;
54125;SDS011;40360;52.992;6.796;2022-08-19T12:11:19;8.18;;;6.45;;
54125;SDS011;40360;52.992;6.796;2022-08-19T12:13:45;7.30;;;6.55;;
54125;SDS011;40360;52.992;6.796;2022-08-19T12:16:15;6.60;;;5.93;;
54125;SDS011;40360;52.992;6.796;2022-08-19T12:18:44;7.85;;;6.28;;
54125;SDS011;40360;52.992;6.796;2022-08-19T12:21:13;6.80;;;6.18;;
54125;SDS011;40360;52.992;6.796;2022-08-19T12:23:40;7.65;;;6.82;;
54125;SDS011;40360;52.992;6.796;2022-08-19T12:26:08;6.32;;;5.80;;
54125;SDS011;40360;52.992;6.796;2022-08-19T12:28:34;6.55;;;6.05;;
54125;SDS011;40360;52.992;6.796;2022-08-19T12:31:00;7.85;;;7.13;;
54125;SDS011;40360;52.992;6.796;2022-08-19T12:33:26;7.28;;;6.57;;
54125;SDS011;40360;52.992;6.796;2022-08-19T12:35:53;7.50;;;6.20;;
54125;SDS011;40360;52.992;6.796;2022-08-19T12:38:19;8.95;;;8.05;;
54125;SDS011;40360;52.992;6.796;2022-08-19T12:40:49;7.53;;;6.78;;
54125;SDS011;40360;52.992;6.796;2022-08-19T12:43:16;7.43;;;6.70;;
54125;SDS011;40360;52.992;6.796;2022-08-19T12:45:44;7.38;;;6.68;;
54125;SDS011;40360;52.992;6.796;2022-08-19T12:48:10;8.30;;;7.35;;
54125;SDS011;40360;52.992;6.796;2022-08-19T12:50:39;8.15;;;7.13;;
54125;SDS011;40360;52.992;6.796;2022-08-19T12:53:05;7.93;;;7.18;;
54125;SDS011;40360;52.992;6.796;2022-08-19T12:55:30;7.78;;;7.07;;
54125;SDS011;40360;52.992;6.796;2022-08-19T12:57:56;7.65;;;6.95;;
54125;SDS011;40360;52.992;6.796;2022-08-19T13:00:22;7.80;;;6.90;;
54125;SDS011;40360;52.992;6.796;2022-08-19T13:02:49;7.22;;;6.53;;
54125;SDS011;40360;52.992;6.796;2022-08-19T13:05:18;8.20;;;7.40;;
54125;SDS011;40360;52.992;6.796;2022-08-19T13:07:49;9.05;;;7.45;;
54125;SDS011;40360;52.992;6.796;2022-08-19T13:10:17;8.07;;;6.75;;
54125;SDS011;40360;52.992;6.796;2022-08-19T13:12:45;5.45;;;4.95;;
54125;SDS011;40360;52.992;6.796;2022-08-19T13:15:12;6.30;;;5.40;;
54125;SDS011;40360;52.992;6.796;2022-08-19T13:17:39;5.85;;;5.22;;
54125;SDS011;40360;52.992;6.796;2022-08-19T13:20:07;5.00;;;4.45;;
54125;SDS011;40360;52.992;6.796;2022-08-19T13:22:34;4.35;;;3.95;;
54125;SDS011;40360;52.992;6.796;2022-08-19T13:25:05;7.28;;;5.07;;
54125;SDS011;40360;52.992;6.796;2022-08-19T13:27:32;4.70;;;4.30;;
54125;SDS011;40360;52.992;6.796;2022-08-19T13:29:57;5.15;;;4.60;;
54125;SDS011;40360;52.992;6.796;2022-08-19T13:32:41;6.05;;;4.20;;
54125;SDS011;40360;52.992;6.796;2022-08-19T13:35:26;6.18;;;4.35;;
54125;SDS011;40360;52.992;6.796;2022-08-19T13:37:51;4.05;;;3.72;;
54125;SDS011;40360;52.992;6.796;2022-08-19T13:40:18;15.45;;;4.85;;
54125;SDS011;40360;52.992;6.796;2022-08-19T13:42:48;5.68;;;4.65;;
54125;SDS011;40360;52.992;6.796;2022-08-19T13:45:16;5.35;;;4.50;;
54125;SDS011;40360;52.992;6.796;2022-08-19T13:47:45;5.13;;;4.25;;
54125;SDS011;40360;52.992;6.796;2022-08-19T13:50:17;4.85;;;4.40;;
54125;SDS011;40360;52.992;6.796;2022-08-19T13:52:47;5.45;;;4.50;;
54125;SDS011;40360;52.992;6.796;2022-08-19T13:55:13;5.13;;;4.55;;
54125;SDS011;40360;52.992;6.796;2022-08-19T13:57:40;4.85;;;4.13;;
54125;SDS011;40360;52.992;6.796;2022-08-19T14:00:11;5.25;;;4.75;;
54125;SDS011;40360;52.992;6.796;2022-08-19T14:02:39;4.40;;;4.00;;
54125;SDS011;40360;52.992;6.796;2022-08-19T14:05:05;5.68;;;5.18;;
54125;SDS011;40360;52.992;6.796;2022-08-19T14:07:33;6.25;;;5.40;;
54125;SDS011;40360;52.992;6.796;2022-08-19T14:09:59;6.55;;;5.75;;
54125;SDS011;40360;52.992;6.796;2022-08-19T14:12:25;6.07;;;4.93;;
54125;SDS011;40360;52.992;6.796;2022-08-19T14:14:50;7.15;;;5.32;;
54125;SDS011;40360;52.992;6.796;2022-08-19T14:17:16;11.77;;;8.57;;
54125;SDS011;40360;52.992;6.796;2022-08-19T14:19:42;13.10;;;11.75;;
54125;SDS011;40360;52.992;6.796;2022-08-19T14:22:08;13.07;;;11.77;;
54125;SDS011;40360;52.992;6.796;2022-08-19T14:24:34;17.70;;;13.32;;
54125;SDS011;40360;52.992;6.796;2022-08-19T14:27:01;16.95;;;15.18;;
54125;SDS011;40360;52.992;6.796;2022-08-19T14:29:28;20.10;;;16.58;;
54125;SDS011;40360;52.992;6.796;2022-08-19T14:31:54;18.80;;;16.60;;
54125;SDS011;40360;52.992;6.796;2022-08-19T14:34:23;19.23;;;15.55;;
54125;SDS011;40360;52.992;6.796;2022-08-19T14:36:51;17.73;;;14.93;;
54125;SDS011;40360;52.992;6.796;2022-08-19T14:39:17;17.73;;;14.98;;
54125;SDS011;40360;52.992;6.796;2022-08-19T14:41:42;17.80;;;15.82;;
54125;SDS011;40360;52.992;6.796;2022-08-19T14:44:08;17.77;;;15.63;;
54125;SDS011;40360;52.992;6.796;2022-08-19T14:46:37;15.80;;;14.07;;
54125;SDS011;40360;52.992;6.796;2022-08-19T14:49:03;16.23;;;14.48;;
54125;SDS011;40360;52.992;6.796;2022-08-19T14:51:29;18.30;;;15.20;;
54125;SDS011;40360;52.992;6.796;2022-08-19T14:53:54;16.88;;;14.30;;
54125;SDS011;40360;52.992;6.796;2022-08-19T14:56:22;16.10;;;12.23;;
54125;SDS011;40360;52.992;6.796;2022-08-19T14:58:50;18.02;;;12.02;;
54125;SDS011;40360;52.992;6.796;2022-08-19T15:01:16;14.45;;;11.27;;